Details From OMDB - DUBAI INTL
To OAIX - BAGRAM
Flight Number -
Tags decoded
Created
Modified
Stats Distance 940 nm / 1,741 km
Max Altitude 0 ft / 0 m
Waypoints 3
Social Downloads 0
Likes 0
Share VATSIM

Download

Looking for another format? Having issues loading an existing format? Contact us
Advertisement - Login to hide

Notes

Requested: OMDB DAVMO Y601 GABKO M317 RADEB M318 KHM A453 TAPIS OAIX Unmatched points: DAVMO Y601 M317 RADEB M318 A453 TAPIS

Route

OMDB KHM OAIX

ID Type Via Altitude Latitude Longitude Leg Dist Tot Dist Heading (true) Name
O OMDB APT - 0 ft / 0 m 25.25491˚ 55.36426˚ - 0 nm - DUBAI INTL
KHM NDB - 0 ft / 0 m 26.76308˚ 55.90767˚ 95 nm 95 nm 18° / 18° DAYRESTAN NDB-DME
O OAIX APT - 0 ft / 0 m 34.94614˚ 69.26497˚ 844 nm 939 nm 51° / 58° BAGRAM

Altitude Profile

Advertisement - Login to hide

Weather


0- 5 10 15 20 25 30 35+ Temperature / ° C

Clouds and Precipitation
Forecast for 2018-05-21 00:00 UTC. Updated 2 hours ago

Ground ~20,000 ft ~40,000 ft Winds

OMDB

Details ICAO OMDB (DXB)
Name DUBAI INTL
Region United Arab Emirates
Timezone Asia/Dubai (UTC+4.0)
Stats Elevation 62 ft / 19 m (AMSL)
Location 25.254912° 55.364260°
Runways 2
Magnetic Variation 2.068° E

METAR

OMDB 210100Z VRB04KT CAVOK 29/20 Q1008 NOSIG

Decode

TAF

TAF OMDB 202304Z 2100/2206 09005KT 8000 NSC PROB30 2101/2104 4000 HZ BECMG 2107/2109 35014KT BECMG 2116/2118 09005KT

Decode

Departure Runways

ID Width Length Bearing (true) Bearing (mag) Surface Threshold Offset Overrun Length
12L 197 ft / 60 m 13,124 ft / 4,000 m 121.49° 119.42° Asphalt 1,312 ft / 400 m 395 ft / 120 m
12R 151 ft / 46 m 13,139 ft / 4,005 m 121.48° 119.41° Asphalt 394 ft / 120 m 197 ft / 60 m
30L 151 ft / 46 m 13,139 ft / 4,005 m 301.50° 299.43° Asphalt 2,953 ft / 900 m 197 ft / 60 m
30R 197 ft / 60 m 13,124 ft / 4,000 m 301.51° 299.44° Asphalt 0 ft / 0 m 395 ft / 120 m

OAIX

Details ICAO OAIX (BPM)
Name BAGRAM
Region Afghanistan
Timezone Asia/Kabul (UTC+4.5)
Stats Elevation 4,895 ft / 1,492 m (AMSL)
Location 34.946139° 69.264972°
Runways 1
Magnetic Variation 3.294° E

METAR

OAIX 210058Z 00000KT 9999 BKN120 10/08 A3012 RMK AO2A SLP138 T00990076 $

Decode

TAF

TAF AMD OAIX 201750Z 2017/2122 36009KT 9999 BKN120 QNH3008INS TEMPO 2017/2018 8000 -SHRA VCTS BKN120CB BECMG 2023/2024 VRB06KT 9000 BR BKN120 QNH3009INS BECMG 2103/2104 30009KT 9999 NSW BKN100 QNH3011INS BECMG 2106/2107 33012KT 9999 BKN080 QNH3006INS TEMPO 2110/2114 VRB15G25KT 8000 -SHRA VCTS BKN070CB BECMG 2115/2116 30009KT 9999 BKN100 QNH3009INS TX20/2107Z TN10/2100Z

Decode

Destination Runways

ID Width Length Bearing (true) Bearing (mag) Surface Threshold Offset Overrun Length
03 180 ft / 55 m 9,865 ft / 3,007 m 28.90° 25.61° Concrete 0 ft / 0 m 0 ft / 0 m
21 180 ft / 55 m 9,865 ft / 3,007 m 208.91° 205.62° Concrete 0 ft / 0 m 0 ft / 0 m

Popular Alternatives